Terminal Aerodrome Forecast
Issued by NWS

Home | Current Version | Previous Version | Text Only | Print | Product List | Glossary On
Versions: 1 2 3 4 5 6 7 8 9 10 11 12
000
FTUS46 KSGX 201700
TAFSNA
TAF
KSNA 201728Z 2018/2118 25006KT P6SM FEW025 SCT100
      TEMPO 2018/2019 BKN022
     FM210400 VRB04KT P6SM VCSH BKN025 OVC040
     FM211500 VRB05KT P6SM SCT023 OVC040=

USA.gov is the U.S. government's official web portal to all federal, state and local government web resources and services.